Time;durP1;ratioP1;P1;durP2;ratioP2;P2;SDS_P1;SDS_P2;PMS_P1;PMS_P2;Temp;Humidity;BMP_temperature;BMP_pressure;BME280_temperature;BME280_humidity;BME280_pressure;Samples;Min_cycle;Max_cycle;Signal;HPM_P1;HPM_P2
2022/02/16 00:00:54;;;;;;;1.30;0.60;;;7.10;99.90;;;;;;5035511;28;20607;-77
2022/02/16 00:03:21;;;;;;;0.40;0.30;;;7.10;99.90;;;;;;5035620;28;20208;-78
2022/02/16 00:05:49;;;;;;;0.50;0.50;;;7.10;99.90;;;;;;5036001;28;20226;-77
2022/02/16 00:08:15;;;;;;;0.60;0.50;;;7.10;99.90;;;;;;5035439;28;20223;-77
2022/02/16 00:10:42;;;;;;;0.77;0.60;;;7.10;99.90;;;;;;5035901;28;20196;-78
2022/02/16 00:13:09;;;;;;;0.40;0.30;;;7.10;99.90;;;;;;5035790;28;20211;-77
2022/02/16 00:15:36;;;;;;;0.55;0.55;;;7.10;99.90;;;;;;5035711;28;20197;-77
2022/02/16 00:18:05;;;;;;;0.63;0.52;;;7.10;99.90;;;;;;5036114;28;20290;-78
2022/02/16 00:20:32;;;;;;;0.60;0.40;;;7.20;99.90;;;;;;5035579;28;20199;-77
2022/02/16 00:23:00;;;;;;;1.02;0.70;;;7.20;99.90;;;;;;5036159;28;20200;-78
2022/02/16 00:25:27;;;;;;;0.88;0.88;;;7.20;99.90;;;;;;5035519;28;20200;-77
2022/02/16 00:27:54;;;;;;;0.40;0.30;;;7.20;99.90;;;;;;5036042;28;20209;-78
2022/02/16 00:30:21;;;;;;;0.40;0.40;;;7.20;99.90;;;;;;5035587;28;20203;-77
2022/02/16 00:32:47;;;;;;;0.40;0.30;;;7.20;99.90;;;;;;5035790;28;20200;-78
2022/02/16 00:35:14;;;;;;;0.80;0.80;;;7.20;99.90;;;;;;5036337;28;20199;-78
2022/02/16 00:37:42;;;;;;;0.40;0.40;;;7.20;99.90;;;;;;5035678;28;20224;-77
2022/02/16 00:40:11;;;;;;;0.40;0.40;;;7.20;99.90;;;;;;5034890;28;20233;-77
2022/02/16 00:42:38;;;;;;;0.40;0.40;;;7.20;99.90;;;;;;5035818;28;20203;-76
2022/02/16 00:45:06;;;;;;;0.40;0.40;;;7.20;99.90;;;;;;5036118;28;20274;-77
2022/02/16 00:47:33;;;;;;;0.50;0.50;;;7.20;99.90;;;;;;5038285;28;20240;-78
2022/02/16 00:50:00;;;;;;;0.60;0.57;;;7.20;99.90;;;;;;5038979;28;20616;-79
2022/02/16 00:52:27;;;;;;;0.52;0.52;;;7.20;99.90;;;;;;5039568;28;20200;-78
2022/02/16 00:54:53;;;;;;;0.40;0.40;;;7.20;99.90;;;;;;5039309;28;20200;-77
2022/02/16 00:57:21;;;;;;;0.45;0.40;;;7.30;99.90;;;;;;5039405;28;20225;-79
2022/02/16 00:59:48;;;;;;;0.40;0.40;;;7.20;99.90;;;;;;5038243;28;20667;-77
2022/02/16 01:02:15;;;;;;;1.05;0.60;;;7.30;99.90;;;;;;5036684;28;20198;-78
2022/02/16 01:04:42;;;;;;;0.40;0.35;;;7.30;99.90;;;;;;5036680;28;20243;-78
2022/02/16 01:07:09;;;;;;;0.40;0.30;;;7.30;99.90;;;;;;5036170;28;20793;-75
2022/02/16 01:09:36;;;;;;;0.63;0.63;;;7.30;99.90;;;;;;5036136;28;20202;-79
2022/02/16 01:12:03;;;;;;;0.50;0.50;;;7.30;99.90;;;;;;5037039;28;20197;-77
2022/02/16 01:14:31;;;;;;;0.40;0.40;;;7.40;99.90;;;;;;5045722;28;20277;-79
2022/02/16 01:16:57;;;;;;;0.40;0.30;;;7.40;99.90;;;;;;5042157;28;20221;-79
2022/02/16 01:19:24;;;;;;;0.40;0.40;;;7.40;99.90;;;;;;5044382;28;20207;-78
2022/02/16 01:21:52;;;;;;;0.40;0.40;;;7.40;99.90;;;;;;5046583;28;20208;-78
2022/02/16 01:24:19;;;;;;;0.50;0.40;;;7.40;99.90;;;;;;5049831;28;20191;-77
2022/02/16 01:26:46;;;;;;;0.50;0.40;;;7.40;99.90;;;;;;5041921;28;20201;-77
2022/02/16 01:29:12;;;;;;;0.40;0.40;;;7.40;99.90;;;;;;5034969;28;20203;-77
2022/02/16 01:31:40;;;;;;;0.90;0.70;;;7.40;99.90;;;;;;5035095;28;20200;-78
2022/02/16 01:34:08;;;;;;;1.35;0.50;;;7.40;99.90;;;;;;5034941;28;20195;-77
2022/02/16 01:36:35;;;;;;;0.70;0.60;;;7.40;99.90;;;;;;5034872;28;20232;-77
2022/02/16 01:39:02;;;;;;;0.40;0.40;;;7.40;99.90;;;;;;5033922;28;20829;-77
2022/02/16 01:41:28;;;;;;;0.70;0.60;;;7.40;99.90;;;;;;5035145;28;20553;-77
2022/02/16 01:43:55;;;;;;;0.50;0.40;;;7.50;99.90;;;;;;5034763;28;20203;-78
2022/02/16 01:46:22;;;;;;;0.50;0.40;;;7.40;99.90;;;;;;5035146;28;20196;-78
2022/02/16 01:48:50;;;;;;;0.40;0.40;;;7.50;99.90;;;;;;5033982;28;20213;-77
2022/02/16 01:51:17;;;;;;;0.70;0.70;;;7.50;99.90;;;;;;5034623;28;20200;-78
2022/02/16 01:53:44;;;;;;;4.32;1.45;;;7.50;99.90;;;;;;5033862;28;20577;-78
2022/02/16 01:56:11;;;;;;;0.57;0.50;;;7.50;99.90;;;;;;5034203;28;20250;-78
2022/02/16 01:58:39;;;;;;;1.75;1.65;;;7.50;99.90;;;;;;5033342;28;20651;-77
2022/02/16 02:01:06;;;;;;;0.50;0.50;;;7.50;99.90;;;;;;5033696;28;20204;-78
2022/02/16 02:03:34;;;;;;;0.55;0.55;;;7.50;99.90;;;;;;5033823;28;20247;-78
2022/02/16 02:06:02;;;;;;;0.50;0.40;;;7.50;99.90;;;;;;5033491;28;20201;-78
2022/02/16 02:08:29;;;;;;;1.02;0.70;;;7.50;99.90;;;;;;5033356;28;20223;-78
2022/02/16 02:10:57;;;;;;;0.40;0.30;;;7.50;99.90;;;;;;5033741;28;20625;-79
2022/02/16 02:13:24;;;;;;;0.73;0.73;;;7.50;99.90;;;;;;5033427;28;20247;-78
2022/02/16 02:15:51;;;;;;;0.50;0.50;;;7.60;99.90;;;;;;5033599;28;20197;-79
2022/02/16 02:18:19;;;;;;;0.40;0.40;;;7.50;99.90;;;;;;5033420;28;20223;-78
2022/02/16 02:20:47;;;;;;;0.50;0.40;;;7.60;99.90;;;;;;5033451;28;20197;-79
2022/02/16 02:23:14;;;;;;;0.40;0.30;;;7.60;99.90;;;;;;5033590;28;20248;-78
2022/02/16 02:25:48;;;;;;;1.10;0.65;;;7.60;99.90;;;;;;5036135;28;20185;-78
2022/02/16 02:28:15;;;;;;;0.70;0.60;;;7.60;99.90;;;;;;5038646;28;20213;-78
2022/02/16 02:30:42;;;;;;;0.47;0.40;;;7.60;99.90;;;;;;5037025;28;20207;-79
2022/02/16 02:33:09;;;;;;;0.50;0.47;;;7.60;99.90;;;;;;5039480;28;20682;-78
2022/02/16 02:35:35;;;;;;;0.50;0.38;;;7.60;99.90;;;;;;5037639;28;20209;-79
2022/02/16 02:38:03;;;;;;;0.40;0.40;;;7.60;99.90;;;;;;5038283;28;20258;-78
2022/02/16 02:40:30;;;;;;;0.50;0.40;;;7.60;99.90;;;;;;5037506;28;20192;-78
2022/02/16 02:42:57;;;;;;;0.60;0.50;;;7.60;99.90;;;;;;5038526;28;20195;-78
2022/02/16 02:45:23;;;;;;;0.90;0.90;;;7.60;99.90;;;;;;5038503;28;20200;-78
2022/02/16 02:47:51;;;;;;;2.08;1.58;;;7.60;99.90;;;;;;5039383;28;20592;-79
2022/02/16 02:50:18;;;;;;;0.80;0.70;;;7.70;99.90;;;;;;5038693;28;20204;-79
2022/02/16 02:52:45;;;;;;;1.42;1.25;;;7.70;99.90;;;;;;5039356;28;20200;-79
2022/02/16 02:55:14;;;;;;;0.50;0.40;;;7.70;99.90;;;;;;5039141;28;20207;-78
2022/02/16 02:57:41;;;;;;;0.90;0.82;;;7.70;99.90;;;;;;5039423;28;20275;-78
2022/02/16 03:00:11;;;;;;;0.40;0.40;;;7.70;99.90;;;;;;5037523;28;20227;-78
2022/02/16 03:02:38;;;;;;;0.50;0.40;;;7.70;99.90;;;;;;5040424;28;20204;-76
2022/02/16 03:05:06;;;;;;;0.55;0.55;;;7.70;99.90;;;;;;5048754;28;20259;-79
2022/02/16 03:07:33;;;;;;;0.40;0.30;;;7.70;99.90;;;;;;5050173;28;20226;-79
2022/02/16 03:09:59;;;;;;;0.50;0.50;;;7.70;99.90;;;;;;5034919;28;20196;-80
2022/02/16 03:12:27;;;;;;;3.33;1.27;;;7.80;99.90;;;;;;5035010;28;20193;-79
2022/02/16 03:14:54;;;;;;;0.45;0.43;;;7.80;99.90;;;;;;5035452;28;20734;-79
2022/02/16 03:17:21;;;;;;;0.60;0.60;;;7.80;99.90;;;;;;5035291;28;20239;-79
2022/02/16 03:19:47;;;;;;;0.90;0.80;;;7.80;99.90;;;;;;5033328;28;20201;-79
2022/02/16 03:22:14;;;;;;;0.60;0.60;;;7.80;99.90;;;;;;5033851;28;20206;-78
2022/02/16 03:24:41;;;;;;;0.40;0.35;;;7.80;99.90;;;;;;5033187;28;20632;-76
2022/02/16 03:27:08;;;;;;;0.40;0.40;;;7.80;99.90;;;;;;5033281;28;20313;-79
2022/02/16 03:29:36;;;;;;;4.45;0.52;;;7.90;99.90;;;;;;5032702;28;20553;-77
2022/02/16 03:32:02;;;;;;;0.50;0.45;;;7.90;99.90;;;;;;5032882;28;20728;-79
2022/02/16 03:34:29;;;;;;;0.70;0.63;;;7.90;99.90;;;;;;5032760;28;20207;-79
2022/02/16 03:36:56;;;;;;;0.40;0.30;;;7.90;99.90;;;;;;5032542;28;20222;-78
2022/02/16 03:39:23;;;;;;;0.50;0.50;;;7.90;99.90;;;;;;5031890;28;20243;-79
2022/02/16 03:41:50;;;;;;;0.60;0.50;;;7.90;99.90;;;;;;5033077;28;20200;-78
2022/02/16 03:44:17;;;;;;;0.50;0.40;;;7.90;99.90;;;;;;5032587;28;20201;-79
2022/02/16 03:46:45;;;;;;;0.65;0.65;;;8.00;99.90;;;;;;5032422;28;20214;-79
2022/02/16 03:49:12;;;;;;;1.58;1.48;;;8.00;99.90;;;;;;5032007;28;20216;-79
2022/02/16 03:51:39;;;;;;;0.50;0.50;;;8.00;99.90;;;;;;5032344;28;20196;-78
2022/02/16 03:54:06;;;;;;;0.60;0.60;;;8.00;99.90;;;;;;5035465;28;20616;-79
2022/02/16 03:56:33;;;;;;;0.60;0.50;;;8.00;99.90;;;;;;5033101;28;20202;-79
2022/02/16 03:58:59;;;;;;;1.23;1.00;;;8.10;99.90;;;;;;5032093;28;20312;-79
2022/02/16 04:01:26;;;;;;;1.42;0.55;;;8.10;99.90;;;;;;5032092;28;20195;-79
2022/02/16 04:03:54;;;;;;;0.60;0.60;;;8.10;99.90;;;;;;5032585;28;20222;-78
2022/02/16 04:06:21;;;;;;;0.80;0.80;;;8.10;99.90;;;;;;5033406;28;20265;-77
2022/02/16 04:08:48;;;;;;;0.85;0.85;;;8.10;99.90;;;;;;5032815;28;20215;-77
2022/02/16 04:11:15;;;;;;;0.40;0.30;;;8.10;99.90;;;;;;5034048;28;20221;-79
2022/02/16 04:13:41;;;;;;;0.50;0.43;;;8.00;99.90;;;;;;5034516;28;20211;-78
2022/02/16 04:16:08;;;;;;;3.13;1.08;;;8.00;99.90;;;;;;5033035;28;20193;-79
2022/02/16 04:18:35;;;;;;;0.40;0.30;;;8.00;99.90;;;;;;5033050;28;20609;-78
2022/02/16 04:21:03;;;;;;;0.40;0.40;;;8.00;99.90;;;;;;5032927;28;20697;-76
2022/02/16 04:23:30;;;;;;;0.88;0.70;;;8.00;99.90;;;;;;5037156;28;20283;-79
2022/02/16 04:25:57;;;;;;;0.40;0.30;;;8.00;99.90;;;;;;5037612;28;20727;-79
2022/02/16 04:28:25;;;;;;;0.50;0.50;;;8.00;99.90;;;;;;5040816;28;20550;-79
2022/02/16 04:30:51;;;;;;;1.05;0.88;;;8.00;99.90;;;;;;5038516;28;20267;-79
2022/02/16 04:33:18;;;;;;;1.17;1.02;;;8.00;99.90;;;;;;5037197;28;20198;-79
2022/02/16 04:35:45;;;;;;;0.70;0.70;;;8.00;99.90;;;;;;5036730;28;20255;-78
2022/02/16 04:38:13;;;;;;;0.40;0.30;;;8.00;99.90;;;;;;5037782;28;20260;-80
2022/02/16 04:40:40;;;;;;;1.75;0.50;;;8.00;99.90;;;;;;5040859;28;20207;-80
2022/02/16 04:43:06;;;;;;;0.45;0.43;;;8.00;99.90;;;;;;5041996;28;20201;-79
2022/02/16 04:45:34;;;;;;;0.40;0.30;;;8.00;99.90;;;;;;5040087;28;20202;-77
2022/02/16 04:48:02;;;;;;;0.40;0.30;;;8.00;99.90;;;;;;5042538;28;20218;-79
2022/02/16 04:50:29;;;;;;;0.50;0.40;;;8.00;99.90;;;;;;5041047;28;20193;-80
2022/02/16 04:52:55;;;;;;;0.40;0.40;;;8.00;99.90;;;;;;5038977;28;20204;-79
2022/02/16 04:55:25;;;;;;;0.50;0.40;;;8.00;99.90;;;;;;5038361;28;20212;-79
2022/02/16 04:57:52;;;;;;;0.70;0.47;;;8.00;99.90;;;;;;5044694;28;20244;-80
2022/02/16 05:00:20;;;;;;;0.95;0.55;;;8.00;99.90;;;;;;5041952;28;20255;-79
2022/02/16 05:02:47;;;;;;;1.75;0.65;;;8.00;99.90;;;;;;5041021;28;20202;-78
2022/02/16 05:05:14;;;;;;;4.05;0.63;;;8.00;99.90;;;;;;5037859;28;20207;-79
2022/02/16 05:07:41;;;;;;;0.45;0.38;;;8.00;99.90;;;;;;5039828;28;20234;-79
2022/02/16 05:10:09;;;;;;;0.50;0.40;;;8.00;99.90;;;;;;5038115;28;20191;-79
2022/02/16 05:12:38;;;;;;;0.40;0.32;;;8.00;99.90;;;;;;5037153;28;20288;-79
2022/02/16 05:15:06;;;;;;;0.40;0.40;;;8.00;99.90;;;;;;5039596;28;20199;-77
2022/02/16 05:17:33;;;;;;;0.73;0.73;;;8.10;99.90;;;;;;5038083;28;20275;-77
2022/02/16 05:19:59;;;;;;;0.60;0.60;;;8.10;99.90;;;;;;5034745;28;20220;-78
2022/02/16 05:22:26;;;;;;;0.40;0.40;;;8.00;99.90;;;;;;5035161;28;20258;-78
2022/02/16 05:24:53;;;;;;;0.60;0.50;;;8.00;99.90;;;;;;5035849;28;20228;-79
2022/02/16 05:27:19;;;;;;;0.50;0.50;;;8.10;99.90;;;;;;5034931;28;20225;-78
2022/02/16 05:29:47;;;;;;;0.50;0.40;;;8.10;99.90;;;;;;5034556;28;20737;-79
2022/02/16 05:32:14;;;;;;;0.50;0.40;;;8.10;99.90;;;;;;5035141;28;20620;-79
2022/02/16 05:34:41;;;;;;;0.73;0.73;;;8.10;99.90;;;;;;5033319;28;20210;-77
2022/02/16 05:37:07;;;;;;;0.40;0.30;;;8.10;99.90;;;;;;5034136;28;20219;-79
2022/02/16 05:39:34;;;;;;;0.60;0.40;;;8.10;99.90;;;;;;5034487;28;20217;-76
2022/02/16 05:42:02;;;;;;;0.40;0.35;;;8.20;99.90;;;;;;5034519;28;20197;-78
2022/02/16 05:44:29;;;;;;;0.50;0.40;;;8.10;99.90;;;;;;5034853;28;20224;-79
2022/02/16 05:46:57;;;;;;;0.60;0.60;;;8.20;99.90;;;;;;5035098;28;20249;-78
2022/02/16 05:49:24;;;;;;;0.70;0.52;;;8.20;99.90;;;;;;5034279;28;20695;-78
2022/02/16 05:51:51;;;;;;;0.50;0.40;;;8.20;99.90;;;;;;5033934;28;20194;-77
2022/02/16 05:54:17;;;;;;;0.45;0.38;;;8.20;99.90;;;;;;5034238;28;20603;-78
2022/02/16 05:56:44;;;;;;;0.50;0.50;;;8.20;99.90;;;;;;5033763;28;20201;-78
2022/02/16 05:59:11;;;;;;;0.50;0.50;;;8.20;99.90;;;;;;5034314;28;20256;-79
2022/02/16 06:01:38;;;;;;;0.40;0.40;;;8.20;99.90;;;;;;5033816;28;20327;-77
2022/02/16 06:04:08;;;;;;;0.90;0.90;;;8.10;99.90;;;;;;5034352;28;20269;-78
2022/02/16 06:06:35;;;;;;;1.23;1.05;;;8.10;99.90;;;;;;5038108;28;20177;-80
2022/02/16 06:09:02;;;;;;;0.40;0.40;;;8.10;99.90;;;;;;5034247;28;20764;-79
2022/02/16 06:11:29;;;;;;;0.40;0.35;;;8.10;99.90;;;;;;5034305;28;20241;-79
2022/02/16 06:13:56;;;;;;;0.40;0.30;;;8.10;99.90;;;;;;5034417;28;20255;-79
2022/02/16 06:16:23;;;;;;;2.90;1.05;;;8.10;99.90;;;;;;5037088;28;20671;-78
2022/02/16 06:18:50;;;;;;;0.40;0.40;;;8.10;99.90;;;;;;5041975;28;20290;-78
2022/02/16 06:21:18;;;;;;;0.40;0.40;;;8.20;99.90;;;;;;5035264;28;20225;-79
2022/02/16 06:23:45;;;;;;;0.60;0.50;;;8.20;99.90;;;;;;5033588;28;20686;-79
2022/02/16 06:26:12;;;;;;;2.35;0.70;;;8.20;99.90;;;;;;5034412;28;20206;-78
2022/02/16 06:28:39;;;;;;;0.40;0.40;;;8.10;99.90;;;;;;5033745;28;20217;-78
2022/02/16 06:31:07;;;;;;;0.40;0.40;;;8.10;99.90;;;;;;5033337;28;20189;-78
2022/02/16 06:33:34;;;;;;;0.50;0.40;;;8.10;99.90;;;;;;5039483;28;20690;-78
2022/02/16 06:36:01;;;;;;;0.50;0.43;;;8.10;99.90;;;;;;5042888;28;20220;-80
2022/02/16 06:38:29;;;;;;;0.40;0.30;;;8.10;99.90;;;;;;5035056;28;20251;-79
2022/02/16 06:40:55;;;;;;;0.47;0.47;;;8.10;99.90;;;;;;5034844;28;20197;-78
2022/02/16 06:43:23;;;;;;;0.40;0.30;;;8.10;99.90;;;;;;5035027;28;20196;-79
2022/02/16 06:45:59;;;;;;;1.77;1.33;;;8.10;99.90;;;;;;5034981;28;20201;-77
2022/02/16 06:48:26;;;;;;;0.40;0.30;;;8.10;99.90;;;;;;5035869;28;20215;-79
2022/02/16 06:50:53;;;;;;;55.80;1.30;;;8.10;99.90;;;;;;5034369;28;20666;-78
2022/02/16 06:53:19;;;;;;;1.30;0.40;;;8.10;99.90;;;;;;5033255;28;20690;-79
2022/02/16 06:55:48;;;;;;;0.40;0.40;;;8.10;99.90;;;;;;5034515;28;20201;-77
2022/02/16 06:58:16;;;;;;;0.40;0.30;;;8.10;99.90;;;;;;5034193;28;20223;-79
2022/02/16 07:00:42;;;;;;;0.40;0.30;;;8.10;99.90;;;;;;5033836;28;20703;-79
2022/02/16 07:03:09;;;;;;;0.50;0.43;;;8.20;99.90;;;;;;5033724;28;20201;-78
2022/02/16 07:05:36;;;;;;;0.50;0.50;;;8.20;99.90;;;;;;5033561;28;20558;-79
2022/02/16 07:08:03;;;;;;;0.50;0.40;;;8.20;99.90;;;;;;5032833;28;20280;-79
2022/02/16 07:10:29;;;;;;;3.92;0.95;;;8.20;99.90;;;;;;5033370;28;20195;-78
2022/02/16 07:12:58;;;;;;;0.40;0.40;;;8.20;99.90;;;;;;5033428;28;20212;-78
2022/02/16 07:15:26;;;;;;;1.85;0.73;;;8.20;99.90;;;;;;5034569;28;20193;-78
2022/02/16 07:17:54;;;;;;;2.25;0.95;;;8.20;99.90;;;;;;5033663;28;20217;-78
2022/02/16 07:20:20;;;;;;;0.43;0.40;;;8.30;99.90;;;;;;5032918;28;20613;-79
2022/02/16 07:22:49;;;;;;;1.40;0.77;;;8.30;99.90;;;;;;5032527;28;20194;-79
2022/02/16 07:25:17;;;;;;;0.50;0.40;;;8.30;99.90;;;;;;5033807;28;20289;-79
2022/02/16 07:27:44;;;;;;;1.20;1.15;;;8.30;99.90;;;;;;5032990;28;20229;-77
2022/02/16 07:30:14;;;;;;;0.50;0.40;;;8.30;99.90;;;;;;5032950;28;20194;-79
2022/02/16 07:32:41;;;;;;;0.70;0.40;;;8.40;99.90;;;;;;5032346;28;20200;-78
2022/02/16 07:35:09;;;;;;;0.50;0.50;;;8.40;99.90;;;;;;5033303;28;20197;-79
2022/02/16 07:37:36;;;;;;;0.50;0.50;;;8.40;99.90;;;;;;5034119;28;20242;-79
2022/02/16 07:40:04;;;;;;;0.43;0.38;;;8.40;99.90;;;;;;5032485;28;20225;-80
2022/02/16 07:42:32;;;;;;;0.50;0.50;;;8.40;99.90;;;;;;5033281;28;20684;-80
2022/02/16 07:44:58;;;;;;;0.52;0.52;;;8.40;99.90;;;;;;5032905;28;20248;-79
2022/02/16 07:47:28;;;;;;;0.60;0.50;;;8.40;99.90;;;;;;5033058;28;20245;-78
2022/02/16 07:49:54;;;;;;;0.50;0.50;;;8.50;99.90;;;;;;5032018;28;20234;-79
2022/02/16 07:52:21;;;;;;;0.93;0.55;;;8.50;99.90;;;;;;5032446;28;20209;-78
2022/02/16 07:54:48;;;;;;;0.90;0.55;;;8.50;99.90;;;;;;5033264;28;20201;-78
2022/02/16 07:57:14;;;;;;;0.40;0.30;;;8.60;99.90;;;;;;5034907;28;20275;-79
2022/02/16 07:59:41;;;;;;;0.60;0.50;;;8.60;99.90;;;;;;5035909;28;20250;-78
2022/02/16 08:02:08;;;;;;;36.05;2.15;;;8.60;99.90;;;;;;5037309;28;20197;-78
2022/02/16 08:04:36;;;;;;;0.40;0.40;;;8.60;99.90;;;;;;5036768;28;20243;-80
2022/02/16 08:07:05;;;;;;;0.40;0.30;;;8.60;99.90;;;;;;5038687;28;20214;-80
2022/02/16 08:09:33;;;;;;;0.50;0.45;;;8.70;99.90;;;;;;5038969;28;20274;-79
2022/02/16 08:11:59;;;;;;;2.25;0.70;;;8.70;99.90;;;;;;5038931;28;20665;-79
2022/02/16 08:14:26;;;;;;;0.40;0.30;;;8.70;99.90;;;;;;5034704;28;20193;-78
2022/02/16 08:16:55;;;;;;;1.35;0.60;;;8.80;99.90;;;;;;5033457;28;20252;-78
2022/02/16 08:19:23;;;;;;;0.85;0.85;;;8.80;99.90;;;;;;5035774;28;20212;-79
2022/02/16 08:21:53;;;;;;;0.50;0.40;;;8.90;99.90;;;;;;5035740;28;20296;-78
2022/02/16 08:24:20;;;;;;;0.47;0.40;;;8.90;99.90;;;;;;5036300;28;20277;-80
2022/02/16 08:26:46;;;;;;;0.40;0.40;;;8.90;99.90;;;;;;5036583;28;20200;-80
2022/02/16 08:29:14;;;;;;;0.40;0.30;;;8.90;99.90;;;;;;5036274;28;20252;-79
2022/02/16 08:31:41;;;;;;;0.40;0.30;;;9.00;99.90;;;;;;5036329;28;20644;-79
2022/02/16 08:34:08;;;;;;;0.50;0.45;;;9.00;99.90;;;;;;5035933;28;20195;-78
2022/02/16 08:36:35;;;;;;;0.40;0.40;;;9.00;99.90;;;;;;5038020;28;20227;-79
2022/02/16 08:39:04;;;;;;;0.50;0.40;;;9.00;99.90;;;;;;5035631;28;20228;-78
2022/02/16 08:41:30;;;;;;;0.40;0.40;;;9.00;99.90;;;;;;5034941;28;20733;-77
2022/02/16 08:43:57;;;;;;;0.60;0.50;;;9.10;99.90;;;;;;5036427;28;20227;-79
2022/02/16 08:46:24;;;;;;;0.40;0.40;;;9.10;99.90;;;;;;5036095;28;20193;-79
2022/02/16 08:48:51;;;;;;;0.63;0.40;;;9.10;99.90;;;;;;5035438;28;20221;-76
2022/02/16 08:51:17;;;;;;;0.50;0.43;;;9.20;99.90;;;;;;5035998;28;20210;-78
2022/02/16 08:53:44;;;;;;;0.50;0.50;;;9.20;99.90;;;;;;5035358;28;20209;-79
2022/02/16 08:56:12;;;;;;;0.60;0.50;;;9.20;99.90;;;;;;5035481;28;20272;-78
2022/02/16 08:58:38;;;;;;;0.50;0.40;;;9.20;99.90;;;;;;5034736;28;20271;-79
2022/02/16 09:01:05;;;;;;;0.50;0.40;;;9.30;99.90;;;;;;5034270;28;20217;-79
2022/02/16 09:03:32;;;;;;;0.50;0.40;;;9.30;99.90;;;;;;5032166;28;20199;-78
2022/02/16 09:06:00;;;;;;;0.60;0.50;;;9.30;99.90;;;;;;5025736;28;20201;-79
2022/02/16 09:08:26;;;;;;;0.40;0.30;;;9.40;99.90;;;;;;5016071;28;20298;-78
2022/02/16 09:10:53;;;;;;;0.60;0.50;;;9.40;99.90;;;;;;5015239;28;20705;-78
2022/02/16 09:13:21;;;;;;;0.40;0.40;;;9.40;99.90;;;;;;5015488;28;20218;-79
2022/02/16 09:15:48;;;;;;;0.60;0.60;;;9.40;99.90;;;;;;5015873;28;20211;-79
2022/02/16 09:18:17;;;;;;;0.40;0.40;;;9.40;99.90;;;;;;5016906;28;20223;-78
2022/02/16 09:20:46;;;;;;;0.73;0.40;;;9.50;99.90;;;;;;5015890;28;20703;-80
2022/02/16 09:23:13;;;;;;;0.40;0.40;;;9.50;99.90;;;;;;5027091;28;20236;-78
2022/02/16 09:25:40;;;;;;;0.50;0.50;;;9.50;99.90;;;;;;5033966;28;20198;-78
2022/02/16 09:28:07;;;;;;;0.90;0.80;;;9.50;99.90;;;;;;5034071;28;20703;-79
2022/02/16 09:30:36;;;;;;;0.70;0.50;;;9.60;99.90;;;;;;5035337;28;20202;-80
2022/02/16 09:33:02;;;;;;;0.50;0.47;;;9.60;99.90;;;;;;5035586;28;20217;-79
2022/02/16 09:35:29;;;;;;;0.60;0.40;;;9.60;99.90;;;;;;5035599;28;20624;-80
2022/02/16 09:37:56;;;;;;;0.40;0.40;;;9.70;99.90;;;;;;5035782;28;20226;-79
2022/02/16 09:40:23;;;;;;;0.60;0.60;;;9.70;99.90;;;;;;5034305;28;20272;-80
2022/02/16 09:42:50;;;;;;;0.50;0.50;;;9.70;99.90;;;;;;5035513;28;20267;-79
2022/02/16 09:45:17;;;;;;;0.82;0.82;;;9.80;99.90;;;;;;5034634;28;20207;-79
2022/02/16 09:47:46;;;;;;;0.75;0.75;;;9.80;99.90;;;;;;5036262;28;20224;-79
2022/02/16 09:50:15;;;;;;;0.50;0.50;;;9.80;99.90;;;;;;5035705;28;20565;-78
2022/02/16 09:52:43;;;;;;;0.80;0.70;;;9.80;99.90;;;;;;5036262;28;20576;-77
2022/02/16 09:55:10;;;;;;;0.75;0.73;;;9.80;99.90;;;;;;5036373;28;20256;-79
2022/02/16 09:57:37;;;;;;;0.75;0.73;;;9.80;99.90;;;;;;5036609;28;20228;-78
2022/02/16 10:00:06;;;;;;;0.98;0.75;;;9.90;99.90;;;;;;5035074;28;20226;-79
2022/02/16 10:02:36;;;;;;;0.60;0.60;;;9.90;99.90;;;;;;5034328;28;20201;-77
2022/02/16 10:05:06;;;;;;;1.65;1.55;;;9.90;99.90;;;;;;5034418;28;20261;-78
2022/02/16 10:07:36;;;;;;;0.93;0.75;;;9.90;99.90;;;;;;5033950;28;20268;-78
2022/02/16 10:10:17;;;;;;;0.68;0.45;;;9.90;99.90;;;;;;5033938;28;20623;-78
2022/02/16 10:12:47;;;;;;;0.50;0.40;;;10.00;99.90;;;;;;5035291;28;20198;-77
2022/02/16 10:15:15;;;;;;;2.75;0.82;;;10.00;99.90;;;;;;5034179;28;20202;-78
2022/02/16 10:17:42;;;;;;;0.80;0.80;;;10.00;99.90;;;;;;5033611;28;20788;-77
2022/02/16 10:20:13;;;;;;;1.30;1.20;;;10.00;99.90;;;;;;5032481;28;20218;-78
2022/02/16 10:22:42;;;;;;;1.30;1.30;;;10.10;99.90;;;;;;5034229;28;20205;-77
2022/02/16 10:25:12;;;;;;;1.63;1.52;;;10.10;99.90;;;;;;5033692;28;20228;-74
2022/02/16 10:28:02;;;;;;;1.73;0.75;;;10.10;99.90;;;;;;5033470;28;20298;-77
2022/02/16 10:30:28;;;;;;;0.93;0.77;;;10.20;99.90;;;;;;5034089;28;20249;-78
2022/02/16 10:33:16;;;;;;;0.40;0.30;;;10.20;99.90;;;;;;5034373;28;20195;-78
2022/02/16 10:35:45;;;;;;;1.90;1.42;;;10.20;99.90;;;;;;5033616;28;20197;-78
2022/02/16 10:38:12;;;;;;;1.45;1.35;;;10.30;99.90;;;;;;5033379;28;20226;-78
2022/02/16 10:40:39;;;;;;;1.33;1.33;;;10.20;99.90;;;;;;5033260;28;20257;-75
2022/02/16 10:43:05;;;;;;;0.50;0.43;;;10.30;99.90;;;;;;5033213;28;20668;-76
2022/02/16 10:45:34;;;;;;;1.40;0.65;;;10.30;99.90;;;;;;5033157;28;20212;-77
2022/02/16 10:48:03;;;;;;;2.60;2.08;;;10.30;99.90;;;;;;5032995;28;20632;-77
2022/02/16 10:50:32;;;;;;;4.18;2.30;;;10.30;99.90;;;;;;5033092;28;20198;-77
2022/02/16 10:53:01;;;;;;;2.67;2.47;;;10.30;99.90;;;;;;5033144;28;20561;-77
2022/02/16 10:55:37;;;;;;;1.90;1.70;;;10.30;99.90;;;;;;5033147;28;20255;-78
2022/02/16 10:58:05;;;;;;;3.78;2.53;;;10.40;99.90;;;;;;5032681;28;20592;-79
2022/02/16 11:00:34;;;;;;;2.88;1.52;;;10.40;99.90;;;;;;5032624;28;20251;-76
2022/02/16 11:03:03;;;;;;;1.25;1.25;;;10.50;99.90;;;;;;5033096;28;20206;-78
2022/02/16 11:05:31;;;;;;;2.05;1.95;;;10.50;99.90;;;;;;5033289;28;20194;-77
2022/02/16 11:08:00;;;;;;;5.97;2.05;;;10.50;99.90;;;;;;5032221;28;20320;-77
2022/02/16 11:10:28;;;;;;;1.10;1.00;;;10.60;99.90;;;;;;5033301;28;20526;-77
2022/02/16 11:12:57;;;;;;;1.00;1.00;;;10.60;99.90;;;;;;5032554;28;20202;-77
2022/02/16 11:15:24;;;;;;;0.50;0.50;;;10.60;99.90;;;;;;5033105;28;20278;-77
2022/02/16 11:17:51;;;;;;;2.20;1.67;;;10.60;99.90;;;;;;5033055;28;20218;-80
2022/02/16 11:20:20;;;;;;;0.85;0.85;;;10.70;99.90;;;;;;5032309;28;20215;-77
2022/02/16 11:22:54;;;;;;;1.13;1.13;;;10.80;99.90;;;;;;5032890;28;20195;-77
2022/02/16 11:25:31;;;;;;;0.85;0.85;;;10.80;99.90;;;;;;5032951;28;20272;-77
2022/02/16 11:27:59;;;;;;;1.00;0.73;;;10.90;99.90;;;;;;5032343;28;20581;-79
2022/02/16 11:30:32;;;;;;;1.50;1.40;;;10.90;99.90;;;;;;5032288;28;20517;-77
2022/02/16 11:33:13;;;;;;;1.48;0.80;;;10.90;99.90;;;;;;5032668;28;20441;-77
2022/02/16 11:35:56;;;;;;;0.95;0.95;;;11.00;99.90;;;;;;5032863;28;20270;-79
2022/02/16 11:38:24;;;;;;;0.90;0.80;;;11.00;99.90;;;;;;5034454;28;20215;-78
2022/02/16 11:40:55;;;;;;;0.70;0.50;;;11.10;99.90;;;;;;5032213;28;20252;-78
2022/02/16 11:43:26;;;;;;;2.75;1.52;;;11.00;99.90;;;;;;5033040;28;20178;-78
2022/02/16 11:45:58;;;;;;;0.70;0.70;;;11.00;99.90;;;;;;5032930;28;20194;-79
2022/02/16 11:48:43;;;;;;;1.33;0.90;;;11.00;99.90;;;;;;5032256;28;20218;-77
2022/02/16 11:51:37;;;;;;;0.68;0.68;;;11.00;99.90;;;;;;5031585;28;20194;-78
2022/02/16 11:54:58;;;;;;;0.60;0.60;;;11.10;99.90;;;;;;5032050;28;20182;-79
2022/02/16 11:57:42;;;;;;;0.70;0.52;;;11.10;99.90;;;;;;5033127;28;20309;-77
2022/02/16 12:00:21;;;;;;;0.80;0.80;;;11.10;99.90;;;;;;5031601;28;20214;-76
2022/02/16 12:03:17;;;;;;;1.13;1.13;;;11.10;99.90;;;;;;5032015;28;20199;-79
2022/02/16 12:05:49;;;;;;;0.60;0.60;;;11.10;99.90;;;;;;5032098;28;20205;-78
2022/02/16 12:08:18;;;;;;;0.40;0.40;;;11.10;99.90;;;;;;5031811;28;20329;-77
2022/02/16 12:10:47;;;;;;;1.90;1.50;;;11.10;99.90;;;;;;5031801;28;20600;-78
2022/02/16 12:13:16;;;;;;;0.80;0.75;;;11.20;99.90;;;;;;5032429;28;20207;-78
2022/02/16 12:15:43;;;;;;;1.00;1.00;;;11.20;99.90;;;;;;5033268;28;20198;-79
2022/02/16 12:18:13;;;;;;;0.68;0.60;;;11.20;99.90;;;;;;5032913;28;20223;-79
2022/02/16 12:20:41;;;;;;;4.53;2.33;;;11.20;99.90;;;;;;5033341;28;20779;-75
2022/02/16 12:23:07;;;;;;;2.05;1.60;;;11.20;99.90;;;;;;5032843;28;20677;-79
2022/02/16 12:25:35;;;;;;;1.58;1.38;;;11.30;99.90;;;;;;5032587;28;20211;-79
2022/02/16 12:28:04;;;;;;;1.88;1.65;;;11.30;99.90;;;;;;5033209;28;20229;-78
2022/02/16 12:30:37;;;;;;;1.20;0.90;;;11.30;99.90;;;;;;5033096;28;20650;-78
2022/02/16 12:33:20;;;;;;;3.10;1.80;;;11.30;99.90;;;;;;5033097;28;20425;-78
2022/02/16 12:35:47;;;;;;;1.55;1.23;;;11.30;99.90;;;;;;5033166;28;20202;-74
2022/02/16 12:38:21;;;;;;;4.53;2.23;;;11.30;99.90;;;;;;5032694;28;20227;-78
2022/02/16 12:40:47;;;;;;;1.42;1.30;;;11.30;99.90;;;;;;5030997;28;20461;-79
2022/02/16 12:43:14;;;;;;;1.35;1.10;;;11.30;99.90;;;;;;5032675;28;20661;-79
2022/02/16 12:45:42;;;;;;;2.63;1.73;;;11.30;99.90;;;;;;5034801;28;20203;-79
2022/02/16 12:48:11;;;;;;;1.70;0.95;;;11.40;99.90;;;;;;5035805;28;20468;-80
2022/02/16 12:50:38;;;;;;;2.22;1.90;;;11.40;99.90;;;;;;5034761;28;20203;-79
2022/02/16 12:53:07;;;;;;;1.13;1.02;;;11.40;99.90;;;;;;5034980;28;20200;-77
2022/02/16 12:55:41;;;;;;;0.95;0.80;;;11.50;99.90;;;;;;5035301;28;20201;-78
2022/02/16 12:58:08;;;;;;;0.85;0.75;;;11.50;99.90;;;;;;5034919;28;20282;-78
2022/02/16 13:00:52;;;;;;;0.68;0.52;;;11.50;99.90;;;;;;5033951;28;20302;-79